Time;durP1;ratioP1;P1;durP2;ratioP2;P2;SDS_P1;SDS_P2;PMS_P1;PMS_P2;Temp;Humidity;BMP_temperature;BMP_pressure;BME280_temperature;BME280_humidity;BME280_pressure;Samples;Min_cycle;Max_cycle;Signal;HPM_P1;HPM_P2
2022/04/22 00:00:57;;;;;;;16.33;7.75;;;;;;;11.34;74.07;101130.94;4951693;28;20046;-68
2022/04/22 00:03:27;;;;;;;15.20;7.43;;;;;;;11.38;73.47;101132.75;4954113;28;20110;-68
2022/04/22 00:05:55;;;;;;;14.80;7.35;;;;;;;11.33;73.84;101133.56;4954683;28;20051;-70
2022/04/22 00:08:24;;;;;;;13.40;7.35;;;;;;;11.29;73.81;101127.38;4955899;28;20063;-74
2022/04/22 00:13:39;;;;;;;12.63;6.68;;;;;;;11.29;73.71;101131.75;4953907;28;20156;-68
2022/04/22 00:16:07;;;;;;;14.30;7.88;;;;;;;11.21;73.67;101136.88;4950444;28;20050;-69
2022/04/22 00:18:36;;;;;;;13.18;7.25;;;;;;;11.11;74.09;101132.34;4952036;28;20054;-69
2022/04/22 00:21:05;;;;;;;15.55;7.03;;;;;;;11.08;74.51;101127.03;4956297;28;20055;-68
2022/04/22 00:23:34;;;;;;;14.02;7.63;;;;;;;11.02;74.60;101130.44;4953581;28;20043;-75
2022/04/22 00:26:02;;;;;;;12.30;5.90;;;;;;;10.98;74.77;101131.25;4958998;28;20542;-73
2022/04/22 00:28:30;;;;;;;12.57;7.00;;;;;;;10.96;75.03;101126.84;4955600;28;20061;-75
2022/04/22 00:30:59;;;;;;;12.68;6.93;;;;;;;10.92;75.05;101130.28;4956462;28;20067;-75
2022/04/22 00:33:27;;;;;;;12.25;6.95;;;;;;;10.88;74.84;101125.84;4957525;28;20145;-68
2022/04/22 00:35:56;;;;;;;13.23;6.97;;;;;;;10.87;75.35;101126.69;4950763;28;20051;-68
2022/04/22 00:38:26;;;;;;;15.05;6.85;;;;;;;10.82;75.39;101138.00;4957198;28;20051;-68
2022/04/22 00:40:57;;;;;;;12.82;6.72;;;;;;;10.80;75.51;101131.84;4958157;28;20047;-67
2022/04/22 00:43:27;;;;;;;11.32;5.97;;;;;;;10.82;75.47;101124.00;4948124;28;20109;-69
2022/04/22 00:45:57;;;;;;;14.85;7.60;;;;;;;10.68;76.28;101128.13;4957177;28;20062;-68
2022/04/22 00:48:29;;;;;;;12.85;6.32;;;;;;;10.66;76.28;101128.09;4954092;28;20047;-69
2022/04/22 00:50:59;;;;;;;12.45;6.07;;;;;;;10.63;76.28;101116.66;4953361;28;20078;-68
2022/04/22 00:53:27;;;;;;;12.02;6.53;;;;;;;10.59;76.21;101123.59;4947626;28;20391;-68
2022/04/22 00:55:59;;;;;;;13.15;6.45;;;;;;;10.54;76.40;101117.38;4952049;28;20057;-69
2022/04/22 00:58:28;;;;;;;14.65;6.78;;;;;;;10.51;76.25;101113.81;4945995;28;20059;-70
2022/04/22 01:00:56;;;;;;;14.30;6.35;;;;;;;10.45;76.18;101123.34;4953890;28;20079;-69
2022/04/22 01:03:25;;;;;;;13.20;6.32;;;;;;;10.48;76.17;101112.91;4951761;28;20050;-74
2022/04/22 01:11:32;;;;;;;9.38;5.85;;;;;;;10.34;76.47;101103.94;4953213;28;20519;-69
2022/04/22 01:14:00;;;;;;;11.77;6.28;;;;;;;10.39;76.16;101102.28;4949634;28;20058;-74
2022/04/22 01:16:29;;;;;;;14.20;6.05;;;;;;;10.34;76.26;101103.94;4951149;28;20125;-74
2022/04/22 01:18:57;;;;;;;11.43;6.75;;;;;;;10.35;76.34;101104.81;4955856;28;20058;-74
2022/04/22 01:21:30;;;;;;;10.95;5.93;;;;;;;10.30;76.44;101101.25;4959125;28;20070;-74
2022/04/22 01:23:57;;;;;;;12.38;5.80;;;;;;;10.23;77.30;101099.34;4955916;28;20234;-74
2022/04/22 01:26:26;;;;;;;12.82;6.65;;;;;;;10.25;76.86;101093.28;4955600;28;20505;-74
2022/04/22 01:28:56;;;;;;;14.30;6.65;;;;;;;10.20;77.08;101099.31;4954351;28;20058;-69
2022/04/22 01:31:26;;;;;;;11.43;6.32;;;;;;;10.14;77.44;101095.69;4951915;28;20055;-68
2022/04/22 01:33:56;;;;;;;13.35;7.15;;;;;;;10.19;77.36;101100.13;4950745;28;20059;-69
2022/04/22 01:36:25;;;;;;;16.58;7.22;;;;;;;10.17;76.98;101094.84;4950516;28;20141;-68
2022/04/22 01:38:57;;;;;;;15.50;7.90;;;;;;;10.18;77.11;101098.34;4951222;28;20078;-67
2022/04/22 01:41:27;;;;;;;14.95;7.80;;;;;;;10.21;77.17;101094.09;4953371;28;20086;-68
2022/04/22 01:43:58;;;;;;;15.68;7.63;;;;;;;10.22;76.98;101098.47;4957506;28;20117;-68
2022/04/22 01:46:26;;;;;;;15.73;8.02;;;;;;;10.17;77.32;101087.00;4953027;28;20615;-69
2022/04/22 01:48:57;;;;;;;13.88;7.82;;;;;;;10.15;77.44;101101.81;4957384;28;20054;-69
2022/04/22 01:51:26;;;;;;;15.55;8.07;;;;;;;10.15;77.57;101097.44;4954367;28;20976;-73
2022/04/22 01:53:57;;;;;;;15.82;7.65;;;;;;;10.09;78.12;101099.94;4957943;28;20548;-74
2022/04/22 01:56:26;;;;;;;16.50;8.73;;;;;;;10.01;78.58;101096.28;4954480;28;20093;-69
2022/04/22 01:58:57;;;;;;;16.45;9.20;;;;;;;10.01;78.97;101083.19;4955641;28;20512;-69
2022/04/22 02:01:29;;;;;;;17.80;8.10;;;;;;;9.97;79.42;101091.84;4958581;28;20093;-69
2022/04/22 02:03:57;;;;;;;14.75;8.18;;;;;;;9.89;79.48;101085.56;4956654;28;20057;-69
2022/04/22 02:06:29;;;;;;;15.90;7.55;;;;;;;9.82;79.77;101083.69;4955468;28;20134;-69
2022/04/22 02:08:58;;;;;;;15.82;7.93;;;;;;;9.78;80.38;101098.44;4950967;28;20039;-68
2022/04/22 02:11:26;;;;;;;14.02;7.78;;;;;;;9.77;80.38;101085.31;4953562;28;20047;-69
2022/04/22 02:13:54;;;;;;;15.70;8.20;;;;;;;9.67;81.02;101080.75;4956141;28;20059;-69
2022/04/22 02:16:26;;;;;;;15.98;8.07;;;;;;;9.59;81.40;101082.31;4955193;28;20062;-75
2022/04/22 02:18:58;;;;;;;15.70;7.63;;;;;;;9.56;81.82;101077.91;4949757;28;20059;-76
2022/04/22 02:21:26;;;;;;;14.68;7.88;;;;;;;9.55;82.04;101070.91;4955537;28;20784;-68
2022/04/22 02:23:58;;;;;;;15.38;8.00;;;;;;;9.59;81.85;101071.84;4953889;28;20198;-68
2022/04/22 02:26:27;;;;;;;15.38;7.88;;;;;;;9.54;82.12;101063.00;4957414;28;20059;-69
2022/04/22 02:29:00;;;;;;;15.70;9.20;;;;;;;9.49;82.31;101061.19;4956855;28;20078;-68
2022/04/22 02:31:28;;;;;;;21.67;8.93;;;;;;;9.47;82.38;101068.13;4958160;28;20444;-75
2022/04/22 02:33:56;;;;;;;16.60;8.95;;;;;;;9.47;82.56;101062.88;4954400;28;20051;-74
2022/04/22 02:36:24;;;;;;;17.52;8.80;;;;;;;9.49;82.64;101060.28;4957261;28;20138;-74
2022/04/22 02:38:53;;;;;;;19.92;8.55;;;;;;;9.46;82.84;101063.72;4960258;28;20047;-74
2022/04/22 02:46:58;;;;;;;15.07;8.65;;;;;;;9.38;83.47;101073.16;4956789;28;20049;-67
2022/04/22 02:49:28;;;;;;;20.33;9.43;;;;;;;9.43;82.91;101073.25;4959682;28;20102;-68
2022/04/22 02:51:56;;;;;;;18.63;9.38;;;;;;;9.34;83.46;101071.34;4957190;28;20051;-69
2022/04/22 02:54:25;;;;;;;16.08;8.63;;;;;;;9.32;83.78;101061.69;4955431;28;20113;-68
2022/04/22 02:56:56;;;;;;;19.65;9.55;;;;;;;9.33;83.93;101053.88;4956812;28;20436;-68
2022/04/22 02:59:27;;;;;;;18.65;9.30;;;;;;;9.33;83.89;101056.50;4955051;28;20062;-68
2022/04/22 03:01:56;;;;;;;15.48;8.88;;;;;;;9.30;83.96;101052.94;4956591;28;20051;-68
2022/04/22 03:04:26;;;;;;;18.83;8.93;;;;;;;9.32;83.93;101057.34;4952030;28;20051;-68
2022/04/22 03:06:55;;;;;;;19.08;9.90;;;;;;;9.34;83.78;101050.41;4959283;28;20165;-68
2022/04/22 03:09:23;;;;;;;17.63;9.07;;;;;;;9.27;84.44;101048.50;4956882;28;20055;-67
2022/04/22 03:11:51;;;;;;;18.00;9.82;;;;;;;9.30;84.21;101045.09;4955849;28;20528;-68
2022/04/22 03:14:29;;;;;;;16.30;8.30;;;;;;;9.26;84.59;101053.72;4954360;28;20075;-68
2022/04/22 03:17:00;;;;;;;17.52;8.68;;;;;;;9.22;84.88;101055.38;4950447;28;20047;-68
2022/04/22 03:19:28;;;;;;;20.15;9.63;;;;;;;9.21;85.26;101050.13;4956878;28;20051;-68
2022/04/22 03:21:56;;;;;;;17.27;8.27;;;;;;;9.17;85.49;101051.78;4955329;28;20090;-69
2022/04/22 03:24:27;;;;;;;17.75;10.30;;;;;;;9.18;85.67;101048.31;4953996;28;20074;-68
2022/04/22 03:26:56;;;;;;;20.40;9.13;;;;;;;9.16;86.19;101047.41;4956191;28;20146;-68
2022/04/22 03:29:24;;;;;;;18.45;9.15;;;;;;;9.14;86.19;101043.84;4955910;28;20105;-69
2022/04/22 03:31:56;;;;;;;21.42;9.82;;;;;;;9.06;87.45;101037.56;4954966;28;20075;-75
2022/04/22 03:34:24;;;;;;;16.70;9.40;;;;;;;9.05;88.15;101035.81;4952019;28;20058;-73
2022/04/22 03:36:53;;;;;;;21.13;9.20;;;;;;;9.00;88.86;101035.69;4956022;28;20043;-74
2022/04/22 03:39:21;;;;;;;18.85;8.73;;;;;;;9.00;90.13;101042.66;4957601;28;20489;-74
2022/04/22 03:41:49;;;;;;;20.02;8.75;;;;;;;9.01;90.46;101040.09;4958149;28;20542;-74
2022/04/22 03:44:17;;;;;;;17.80;8.98;;;;;;;8.97;91.04;101034.75;4962037;28;20042;-74
2022/04/22 03:46:51;;;;;;;18.17;9.15;;;;;;;8.96;91.39;101038.22;4960351;28;20555;-73
2022/04/22 03:49:26;;;;;;;17.27;9.15;;;;;;;8.87;92.61;101044.13;4962983;28;20063;-70
2022/04/22 03:51:56;;;;;;;17.77;8.63;;;;;;;8.87;93.04;101040.63;4956359;28;20050;-69
2022/04/22 03:54:25;;;;;;;20.65;8.75;;;;;;;8.85;93.18;101032.72;4958555;28;20586;-69
2022/04/22 03:59:39;;;;;;;19.58;9.32;;;;;;;8.89;94.38;101025.84;4954856;28;20070;-69
2022/04/22 04:02:07;;;;;;;17.30;9.32;;;;;;;8.87;94.86;101030.16;4950322;28;20050;-69
2022/04/22 04:04:37;;;;;;;18.95;9.00;;;;;;;8.88;94.94;101031.91;4951234;28;20051;-69
2022/04/22 04:07:05;;;;;;;19.13;8.73;;;;;;;8.85;95.17;101038.84;4952566;28;20062;-69
2022/04/22 04:17:57;;;;;;;18.35;9.57;;;;;;;8.94;96.18;101042.53;4960461;28;20798;-75
2022/04/22 04:23:15;;;;;;;25.55;9.90;;;;;;;8.96;96.17;101027.75;4952563;28;20050;-74
2022/04/22 04:25:49;;;;;;;21.75;10.18;;;;;;;8.95;96.04;101032.09;4952912;28;20100;-75
2022/04/22 04:28:23;;;;;;;17.65;9.57;;;;;;;8.93;96.18;101031.19;4949638;28;20210;-75
2022/04/22 04:30:53;;;;;;;22.70;12.35;;;;;;;8.93;96.25;101030.28;4952699;28;20452;-75
2022/04/22 04:33:22;;;;;;;24.35;11.02;;;;;;;8.91;96.32;101043.34;4955454;28;20062;-75
2022/04/22 04:35:53;;;;;;;29.05;11.05;;;;;;;8.92;96.58;101036.38;4954202;28;20047;-75
2022/04/22 04:38:23;;;;;;;24.00;11.75;;;;;;;8.90;96.48;101035.47;4956561;28;20448;-74
2022/04/22 04:40:52;;;;;;;22.08;11.00;;;;;;;8.90;96.71;101035.47;4954734;28;20061;-74
2022/04/22 04:43:24;;;;;;;26.38;11.00;;;;;;;8.81;96.81;101037.00;4956847;28;20047;-74
2022/04/22 04:45:52;;;;;;;22.48;12.23;;;;;;;8.72;97.48;101039.41;4951201;28;20098;-74
2022/04/22 04:48:23;;;;;;;25.58;12.02;;;;;;;8.76;97.58;101042.97;4952469;28;20054;-74
2022/04/22 04:50:57;;;;;;;25.15;12.93;;;;;;;8.73;97.64;101045.53;4952295;28;21138;-74
2022/04/22 04:53:28;;;;;;;23.65;12.20;;;;;;;8.80;97.38;101052.66;4950259;28;20162;-68
2022/04/22 04:55:56;;;;;;;25.38;12.57;;;;;;;8.86;97.18;101050.19;4952644;28;20059;-75
2022/04/22 04:58:26;;;;;;;27.63;13.07;;;;;;;8.83;97.26;101052.72;4952006;28;20157;-68
2022/04/22 05:00:58;;;;;;;26.05;12.98;;;;;;;8.84;97.24;101051.88;4950912;28;20058;-70
2022/04/22 05:03:26;;;;;;;26.38;13.02;;;;;;;8.87;97.05;101048.47;4957122;28;20074;-67
2022/04/22 05:05:58;;;;;;;26.75;11.82;;;;;;;8.90;97.46;101040.69;4952700;28;20042;-68
2022/04/22 05:08:27;;;;;;;29.23;13.38;;;;;;;8.93;97.56;101038.13;4952832;28;20067;-68
2022/04/22 05:10:58;;;;;;;26.25;12.65;;;;;;;8.98;97.36;101037.41;4951331;28;20059;-68
2022/04/22 05:13:26;;;;;;;33.85;13.40;;;;;;;9.03;97.31;101037.50;4954321;28;20066;-69
2022/04/22 05:15:57;;;;;;;27.77;13.10;;;;;;;9.11;97.01;101035.94;4959740;28;20062;-69
2022/04/22 05:18:29;;;;;;;26.38;13.02;;;;;;;9.21;96.21;101032.69;4954155;28;20055;-68
2022/04/22 05:20:59;;;;;;;37.05;14.05;;;;;;;9.22;96.07;101037.06;4952721;28;20052;-74
2022/04/22 05:23:27;;;;;;;28.75;12.45;;;;;;;9.25;95.75;101036.25;4960303;28;22742;-75
2022/04/22 05:26:01;;;;;;;28.65;12.73;;;;;;;9.26;95.38;101032.78;4958188;28;20051;-74
2022/04/22 05:28:29;;;;;;;;;;;;;;;9.23;95.57;101038.81;4960395;28;20051;-74
2022/04/22 05:33:51;;;;;;;28.00;14.00;;;;;;;9.42;94.95;101030.50;4957146;28;20457;-75
2022/04/22 05:36:20;;;;;;;29.98;14.13;;;;;;;9.38;94.65;101031.28;4957331;28;20058;-75
2022/04/22 05:38:52;;;;;;;33.08;13.57;;;;;;;9.46;94.16;101034.94;4957349;28;20520;-76
2022/04/22 05:41:23;;;;;;;28.25;14.15;;;;;;;9.56;93.50;101032.50;4951787;28;20097;-75
2022/04/22 05:43:51;;;;;;;26.65;13.90;;;;;;;9.59;93.14;101028.22;4956727;28;20054;-75
2022/04/22 05:46:26;;;;;;;28.25;13.60;;;;;;;9.67;92.62;101033.59;4956524;28;20137;-74
2022/04/22 05:49:01;;;;;;;29.58;13.57;;;;;;;9.82;92.12;101039.16;4958023;28;20507;-68
2022/04/22 05:51:30;;;;;;;28.80;13.43;;;;;;;9.87;91.40;101045.34;4956779;28;20082;-68
2022/04/22 05:53:58;;;;;;;28.90;13.70;;;;;;;9.91;91.11;101034.09;4957523;28;20129;-68
2022/04/22 05:56:26;;;;;;;27.45;12.38;;;;;;;10.01;90.54;101046.50;4954743;28;20063;-69
2022/04/22 05:58:59;;;;;;;28.77;13.07;;;;;;;10.04;90.23;101036.09;4955780;28;20169;-70
2022/04/22 06:01:27;;;;;;;30.63;13.68;;;;;;;10.16;89.31;101036.31;4952545;28;20051;-68
2022/04/22 06:03:55;;;;;;;28.33;12.23;;;;;;;10.23;88.79;101046.94;4952319;28;20076;-69
2022/04/22 06:06:26;;;;;;;26.10;13.27;;;;;;;10.38;88.40;101047.22;4955643;28;20065;-69
2022/04/22 06:11:41;;;;;;;25.80;12.80;;;;;;;10.56;87.37;101041.34;4957364;28;20117;-69
2022/04/22 06:14:12;;;;;;;28.83;13.02;;;;;;;10.56;86.81;101037.00;4955719;28;20046;-68
2022/04/22 06:16:42;;;;;;;24.77;12.48;;;;;;;10.77;86.34;101037.34;4964533;28;20066;-69
2022/04/22 06:19:10;;;;;;;23.02;11.45;;;;;;;10.81;85.69;101039.16;4957681;28;20047;-70
2022/04/22 06:21:38;;;;;;;27.65;12.57;;;;;;;10.98;85.13;101039.41;4957647;28;20047;-70
2022/04/22 06:24:08;;;;;;;27.73;12.82;;;;;;;10.88;85.45;101028.75;4956456;28;20118;-70
2022/04/22 06:26:37;;;;;;;22.60;12.63;;;;;;;10.95;84.91;101026.25;4955854;28;20225;-75
2022/04/22 06:29:09;;;;;;;23.13;12.38;;;;;;;10.94;84.70;101021.84;4960051;28;20554;-75
2022/04/22 06:31:38;;;;;;;27.65;13.23;;;;;;;11.20;83.84;101027.47;4958030;28;20058;-75
2022/04/22 06:34:09;;;;;;;23.77;12.38;;;;;;;11.31;82.79;101020.63;4960570;28;20047;-76
2022/04/22 06:36:41;;;;;;;23.08;11.70;;;;;;;11.48;82.36;101018.19;4958790;28;20043;-75
2022/04/22 06:39:13;;;;;;;27.85;13.68;;;;;;;11.56;81.48;101021.78;4955611;28;20142;-75
2022/04/22 06:47:16;;;;;;;25.75;12.82;;;;;;;11.67;79.65;101014.91;4948449;28;20109;-68
2022/04/22 06:49:45;;;;;;;25.98;13.48;;;;;;;11.70;80.05;101014.06;4954083;28;20043;-71
2022/04/22 06:52:16;;;;;;;24.35;13.00;;;;;;;11.88;79.00;101016.94;4953482;28;20479;-71
2022/04/22 06:54:51;;;;;;;26.50;12.25;;;;;;;11.88;79.07;101014.31;4954942;28;20472;-68
2022/04/22 06:57:22;;;;;;;24.48;13.18;;;;;;;11.99;78.52;101014.41;4954375;28;20054;-69
2022/04/22 07:00:02;;;;;;;23.23;12.90;;;;;;;12.13;77.55;101011.94;4955001;28;20062;-69
2022/04/22 07:02:30;;;;;;;24.85;12.85;;;;;;;11.90;78.29;101015.19;4952632;28;20090;-70
2022/04/22 07:05:04;;;;;;;25.08;13.05;;;;;;;12.18;76.98;101016.38;4955499;28;20134;-69
2022/04/22 07:07:34;;;;;;;27.95;13.13;;;;;;;12.36;76.41;101013.03;4956339;28;20082;-70
2022/04/22 07:10:05;;;;;;;25.80;13.70;;;;;;;12.16;75.99;101011.97;4963784;28;20081;-70
2022/04/22 07:12:34;;;;;;;27.55;14.32;;;;;;;12.24;76.27;101023.44;4956910;28;20089;-70
2022/04/22 07:15:04;;;;;;;26.02;14.02;;;;;;;12.47;75.71;101021.88;4956908;28;20634;-69
2022/04/22 07:17:36;;;;;;;24.55;13.50;;;;;;;12.80;74.72;101002.81;4959830;28;20062;-69
2022/04/22 07:20:09;;;;;;;26.10;13.40;;;;;;;12.94;74.21;101008.16;4955255;28;20098;-70
2022/04/22 07:22:45;;;;;;;25.38;13.32;;;;;;;12.96;73.28;101009.06;4959821;28;20520;-71
2022/04/22 07:25:21;;;;;;;27.20;13.63;;;;;;;13.03;73.18;101006.47;4953265;28;20054;-70
2022/04/22 07:27:58;;;;;;;26.33;13.95;;;;;;;13.08;72.86;101006.50;4956831;28;20624;-69
2022/04/22 07:30:27;;;;;;;23.73;12.85;;;;;;;13.10;72.19;100999.50;4959236;28;20049;-69
2022/04/22 07:32:56;;;;;;;25.95;13.68;;;;;;;13.22;71.95;101003.97;4957370;28;20042;-70
2022/04/22 07:35:28;;;;;;;25.58;13.38;;;;;;;13.02;71.57;101006.47;4954649;28;20047;-70
2022/04/22 07:37:56;;;;;;;28.17;13.68;;;;;;;13.04;71.60;101004.72;4953167;28;20476;-69
2022/04/22 07:40:29;;;;;;;28.05;14.05;;;;;;;13.41;71.10;100997.91;4952847;28;20432;-69
2022/04/22 07:48:42;;;;;;;22.98;13.20;;;;;;;13.86;68.75;100989.25;4952955;28;20163;-75
2022/04/22 07:51:10;;;;;;;27.15;13.13;;;;;;;13.89;68.46;100989.25;4951003;28;20051;-75
2022/04/22 07:53:38;;;;;;;21.92;13.85;;;;;;;13.94;67.47;100987.50;4950780;28;20063;-75
2022/04/22 07:56:10;;;;;;;23.02;13.60;;;;;;;14.02;66.91;100996.31;4952528;28;20050;-76
2022/04/22 07:58:39;;;;;;;25.33;13.55;;;;;;;14.12;67.39;100991.94;4959106;28;20129;-75
2022/04/22 08:01:08;;;;;;;26.02;13.50;;;;;;;14.32;66.53;100984.03;4950944;28;20063;-76
2022/04/22 08:03:37;;;;;;;28.63;12.95;;;;;;;14.44;65.61;100983.19;4956235;28;20152;-76
2022/04/22 08:06:06;;;;;;;29.48;13.30;;;;;;;14.53;65.42;100984.06;4952672;28;20047;-75
2022/04/22 08:08:35;;;;;;;27.05;13.65;;;;;;;14.55;64.88;100986.72;4950371;28;20837;-74
2022/04/22 08:11:03;;;;;;;22.65;12.70;;;;;;;14.53;65.48;100978.78;4957067;28;20102;-76
2022/04/22 08:13:36;;;;;;;20.85;11.98;;;;;;;14.83;64.57;100979.59;4952042;28;20050;-75
2022/04/22 08:16:04;;;;;;;24.77;13.30;;;;;;;14.69;63.70;100984.91;4955203;28;20055;-74
2022/04/22 08:18:32;;;;;;;22.60;12.90;;;;;;;15.21;63.05;100980.38;4950669;28;20078;-76
2022/04/22 08:21:00;;;;;;;22.58;13.15;;;;;;;15.15;62.19;100975.13;4950819;28;20106;-75
2022/04/22 08:23:28;;;;;;;24.80;13.05;;;;;;;15.09;62.07;100985.72;4954660;28;20047;-75
2022/04/22 08:25:57;;;;;;;23.42;12.63;;;;;;;15.17;61.40;100983.03;4954616;28;20047;-75
2022/04/22 08:28:26;;;;;;;23.00;12.43;;;;;;;14.80;62.51;100979.59;4952598;28;20499;-75
2022/04/22 08:32:24;;;;;;;24.88;12.13;;;;;;;15.02;61.26;100979.56;5111051;27;20484;-75
2022/04/22 08:34:54;;;;;;;23.85;12.32;;;;;;;15.13;61.51;100971.59;5087907;28;128914;-75
2022/04/22 08:37:44;;;;;;;21.42;12.38;;;;;;;15.55;60.24;100969.66;5044192;27;385090;-71
2022/04/22 08:40:19;;;;;;;20.55;11.80;;;;;;;15.47;60.80;100961.78;5019695;28;233268;-70
2022/04/22 08:43:00;;;;;;;21.67;11.73;;;;;;;15.50;59.80;100955.59;5080533;27;20264;-70
2022/04/22 08:45:29;;;;;;;21.38;11.60;;;;;;;15.95;58.83;100943.88;5057547;28;20049;-70
2022/04/22 08:50:43;;;;;;;24.10;13.30;;;;;;;15.76;58.07;100952.81;5055808;28;20045;-70
2022/04/22 08:53:18;;;;;;;21.80;12.25;;;;;;;15.87;58.24;100948.34;5056074;28;20044;-70
2022/04/22 08:55:55;;;;;;;22.60;12.18;;;;;;;15.52;58.98;100957.34;5037658;28;20059;-70
2022/04/22 08:58:30;;;;;;;25.23;13.57;;;;;;;16.03;58.55;100953.50;5050423;28;20661;-71
2022/04/22 09:00:59;;;;;;;24.08;12.15;;;;;;;15.99;57.18;100951.78;5051297;28;20554;-70
2022/04/22 09:03:29;;;;;;;23.05;12.20;;;;;;;16.32;57.33;100944.47;5050540;28;102448;-70
2022/04/22 09:05:58;;;;;;;24.10;13.57;;;;;;;16.28;57.12;100934.78;5057235;28;20140;-71
2022/04/22 09:08:28;;;;;;;25.95;14.27;;;;;;;15.86;57.62;100938.66;5056043;28;20045;-71
2022/04/22 09:10:58;;;;;;;22.67;12.55;;;;;;;16.04;57.68;100933.22;5059206;28;20063;-71
2022/04/22 09:13:30;;;;;;;22.17;12.48;;;;;;;15.72;57.72;100936.09;5059598;28;20056;-71
2022/04/22 09:15:59;;;;;;;21.52;13.27;;;;;;;15.46;58.82;100924.78;5058898;28;20053;-71
2022/04/22 09:18:43;;;;;;;24.02;13.07;;;;;;;15.95;57.97;100920.94;5057663;28;20056;-70
2022/04/22 09:21:15;;;;;;;21.83;12.52;;;;;;;15.79;58.29;100927.22;5055968;28;20049;-70
2022/04/22 09:23:45;;;;;;;22.33;13.40;;;;;;;15.35;59.05;100922.19;5057339;28;20045;-71
2022/04/22 09:26:22;;;;;;;27.67;13.27;;;;;;;15.65;58.89;100929.09;5058023;28;20094;-71
2022/04/22 09:29:05;;;;;;;27.02;12.82;;;;;;;15.83;58.11;100917.50;5054797;28;20045;-70
2022/04/22 09:31:47;;;;;;;21.42;12.00;;;;;;;16.23;56.55;100915.44;5056423;28;20053;-70
2022/04/22 09:34:22;;;;;;;20.02;11.57;;;;;;;16.22;56.05;100906.63;5054766;28;20045;-70
2022/04/22 09:42:39;;;;;;;26.23;12.63;;;;;;;16.53;54.51;100887.81;5056656;28;20098;-70
2022/04/22 09:45:09;;;;;;;23.27;12.60;;;;;;;16.92;55.36;100879.41;5059742;28;20048;-70
2022/04/22 09:47:40;;;;;;;23.08;12.30;;;;;;;16.91;54.65;100887.38;5055868;28;20069;-71
2022/04/22 09:50:11;;;;;;;21.50;12.05;;;;;;;16.50;55.34;100891.34;5058034;28;20045;-71
2022/04/22 09:52:43;;;;;;;22.35;12.20;;;;;;;16.28;55.52;100887.16;5047662;28;20044;-76
2022/04/22 09:55:15;;;;;;;23.90;12.05;;;;;;;16.68;54.75;100883.22;5044101;28;20048;-76
2022/04/22 09:57:55;;;;;;;21.98;12.55;;;;;;;17.08;54.27;100864.19;5049414;28;20477;-78
2022/04/22 10:00:30;;;;;;;23.65;12.20;;;;;;;17.31;52.87;100879.78;5046507;28;20529;-77
2022/04/22 10:03:22;;;;;;;21.65;12.50;;;;;;;17.23;52.83;100874.59;5046451;28;20052;-77
2022/04/22 10:05:54;;;;;;;19.48;11.80;;;;;;;17.27;52.87;100871.00;5052182;28;20049;-78
2022/04/22 10:08:25;;;;;;;22.90;12.07;;;;;;;17.34;52.46;100866.50;5050076;28;20067;-78
2022/04/22 10:11:15;;;;;;;26.15;12.45;;;;;;;17.72;52.19;100859.75;5050193;28;20048;-78
2022/04/22 10:13:45;;;;;;;19.23;11.25;;;;;;;18.04;51.26;100861.88;5048688;28;20059;-77
2022/04/22 10:16:17;;;;;;;22.55;11.65;;;;;;;18.05;50.04;100853.91;5055199;28;20045;-79
2022/04/22 10:18:49;;;;;;;20.85;11.45;;;;;;;17.60;50.76;100858.16;5052988;28;20076;-79
2022/04/22 10:21:19;;;;;;;19.67;11.95;;;;;;;17.28;51.85;100854.22;5051957;28;20056;-78
2022/04/22 10:23:52;;;;;;;23.30;12.50;;;;;;;16.93;52.42;100861.75;5052437;28;20040;-78
2022/04/22 10:26:23;;;;;;;21.50;11.02;;;;;;;17.28;51.57;100856.88;5049724;28;20041;-78
2022/04/22 10:28:52;;;;;;;18.48;11.15;;;;;;;17.53;49.98;100851.22;5046716;28;20053;-77
2022/04/22 10:31:27;;;;;;;17.05;10.57;;;;;;;17.61;48.37;100844.00;5046807;28;20036;-79
2022/04/22 10:34:07;;;;;;;22.35;10.82;;;;;;;17.65;48.72;100856.31;5043060;28;20492;-77
2022/04/22 10:36:35;;;;;;;18.52;11.27;;;;;;;17.96;48.47;100852.28;5046530;28;20049;-77
2022/04/22 10:39:11;;;;;;;20.05;11.27;;;;;;;17.85;49.54;100853.34;5043105;28;20082;-73
2022/04/22 10:41:48;;;;;;;20.17;11.30;;;;;;;17.52;49.49;100850.34;5044223;28;20045;-78
2022/04/22 10:47:17;;;;;;;19.55;12.02;;;;;;;17.85;49.04;100846.28;5041466;28;20059;-77
2022/04/22 10:49:50;;;;;;;20.58;11.10;;;;;;;18.23;48.09;100844.75;5045993;28;20087;-77
2022/04/22 10:52:23;;;;;;;18.10;10.70;;;;;;;18.48;48.57;100840.72;5042049;28;20086;-73
2022/04/22 10:55:20;;;;;;;22.23;11.57;;;;;;;18.22;48.20;100850.94;5035748;28;20054;-73
2022/04/22 10:58:27;;;;;;;20.88;10.80;;;;;;;17.94;49.06;100827.56;5042064;28;20060;-72
2022/04/22 11:00:58;;;;;;;;;;;;;;;17.88;48.61;100830.31;5041749;28;20222;-72
2022/04/22 11:03:35;;;;;;;21.58;12.45;;;;;;;17.80;48.45;100831.34;5043484;28;19927;-73
2022/04/22 11:06:10;;;;;;;17.77;10.20;;;;;;;17.38;49.68;100832.88;5039854;28;20061;-73
2022/04/22 11:08:42;;;;;;;17.67;10.57;;;;;;;17.30;48.70;100833.84;5043203;28;20495;-73
2022/04/22 11:11:27;;;;;;;19.05;10.88;;;;;;;16.77;49.61;100849.59;5042869;28;20140;-73
2022/04/22 11:13:58;;;;;;;16.90;9.48;;;;;;;16.92;49.72;100838.78;5041535;28;20052;-73
2022/04/22 11:16:30;;;;;;;19.70;9.95;;;;;;;16.53;50.00;100833.09;5041751;28;20187;-73
2022/04/22 11:19:37;;;;;;;18.75;9.25;;;;;;;16.59;49.79;100833.00;5041491;28;20072;-73
2022/04/22 11:22:15;;;;;;;15.75;8.95;;;;;;;16.67;49.79;100832.91;4995012;28;20071;-73
2022/04/22 11:24:45;;;;;;;16.48;9.55;;;;;;;16.96;49.67;100821.97;5001434;28;20060;-73
2022/04/22 11:27:20;;;;;;;15.35;9.48;;;;;;;17.46;48.81;100813.31;4998614;28;20045;-73
2022/04/22 11:30:00;;;;;;;19.30;9.05;;;;;;;17.42;47.93;100822.19;5000578;28;20530;-73
2022/04/22 11:32:31;;;;;;;18.52;9.70;;;;;;;17.78;47.61;100817.22;4997143;28;20052;-72
2022/04/22 11:35:21;;;;;;;18.33;9.63;;;;;;;17.56;48.24;100809.59;4999948;28;20062;-73
2022/04/22 11:38:00;;;;;;;19.67;10.50;;;;;;;17.51;49.08;100815.88;4983055;28;20077;-72
2022/04/22 11:40:37;;;;;;;20.08;9.50;;;;;;;17.47;47.90;100815.06;5002778;28;20054;-73
2022/04/22 11:43:30;;;;;;;17.00;10.53;;;;;;;17.44;47.94;100808.91;4999180;28;20457;-73
2022/04/22 11:45:59;;;;;;;19.05;10.18;;;;;;;17.21;49.95;100811.91;4985649;28;20716;-73
2022/04/22 11:48:29;;;;;;;21.52;10.25;;;;;;;17.11;50.44;100811.16;4999991;28;20053;-72
2022/04/22 11:51:02;;;;;;;20.45;10.77;;;;;;;17.05;50.74;100811.25;4982837;28;20588;-73
2022/04/22 11:53:32;;;;;;;21.13;10.75;;;;;;;16.87;51.21;100827.38;5027633;28;20044;-73
2022/04/22 11:56:03;;;;;;;19.00;10.65;;;;;;;16.66;51.03;100804.69;5041552;28;20073;-73
2022/04/22 11:58:38;;;;;;;23.03;11.33;;;;;;;16.73;51.55;100814.31;5042466;28;20385;-73
2022/04/22 12:06:49;;;;;;;20.58;12.68;;;;;;;17.03;52.02;100809.50;5045996;28;20047;-79
2022/04/22 12:09:21;;;;;;;19.98;11.40;;;;;;;16.83;51.69;100815.06;5042829;28;20098;-77
2022/04/22 12:11:59;;;;;;;21.10;10.70;;;;;;;16.81;51.48;100803.63;5044784;28;20045;-77
2022/04/22 12:14:30;;;;;;;19.45;10.70;;;;;;;16.56;51.41;100808.34;5045125;28;20098;-80
2022/04/22 12:17:00;;;;;;;17.40;10.60;;;;;;;16.74;51.76;100815.19;5046376;28;20041;-80
2022/04/22 12:19:30;;;;;;;24.67;11.15;;;;;;;16.73;51.33;100809.00;5045525;28;20053;-79
2022/04/22 12:22:00;;;;;;;19.27;10.73;;;;;;;16.79;51.13;100808.06;5047664;28;20057;-78
2022/04/22 12:24:28;;;;;;;18.00;10.13;;;;;;;16.73;51.62;100803.72;5047771;28;20648;-80
2022/04/22 12:27:00;;;;;;;15.93;9.98;;;;;;;16.47;50.82;100805.81;5044062;28;20053;-79
2022/04/22 12:29:30;;;;;;;;;;;;;;;16.38;50.79;100793.53;5049697;28;20076;-78
2022/04/22 12:31:58;;;;;;;20.55;10.45;;;;;;;16.65;50.88;100795.00;5047149;28;19924;-79
2022/04/22 12:34:28;;;;;;;18.45;10.13;;;;;;;17.32;50.09;100783.47;5043160;28;20045;-79
2022/04/22 12:36:59;;;;;;;19.73;10.57;;;;;;;17.44;49.62;100785.06;5048420;28;20103;-79